Terminal Aerodrome Forecast
Issued by NWS

Home | Current Version | Previous Version | Text Only | Print | Product List | Glossary On
Versions: 1 2 3 4 5 6 7 8 9 10 11 12 13
847
FTUS43 KJKL 222331
TAFSJS
TAF
KSJS 222331Z 2300/2324 25006KT P6SM FEW060 SCT250
     FM230500 VRB03KT P6SM VCTS BKN050CB BKN150
     FM231200 VRB05KT 5SM -SHRA VCTS BKN090CB
     FM231500 24009G18KT P6SM BKN100=

USA.gov is the U.S. government's official web portal to all federal, state and local government web resources and services.